Time;durP1;ratioP1;P1;durP2;ratioP2;P2;SDS_P1;SDS_P2;PMS_P1;PMS_P2;Temp;Humidity;BMP_temperature;BMP_pressure;BME280_temperature;BME280_humidity;BME280_pressure;Samples;Min_cycle;Max_cycle;Signal;HPM_P1;HPM_P2
2024/04/15 00:01:39;;;;;;;2.87;1.30;;;12.70;99.90;;;-141.84;48.98;19693.94;5433220;26;20265;-67
2024/04/15 00:04:07;;;;;;;3.75;1.40;;;12.80;99.90;;;-141.84;49.60;19691.91;5451104;26;20269;-67
2024/04/15 00:06:39;;;;;;;3.63;1.40;;;12.70;99.90;;;-141.84;49.61;19700.03;5452402;26;20229;-68
2024/04/15 00:09:07;;;;;;;2.10;1.20;;;12.70;99.90;;;-141.84;47.04;19748.81;5450402;26;20788;-68
2024/04/15 00:11:37;;;;;;;5.63;1.58;;;12.70;99.90;;;-141.84;46.21;19732.53;5451483;26;20241;-68
2024/04/15 00:14:04;;;;;;;2.50;1.13;;;12.90;99.90;;;-141.84;47.09;19740.69;5450574;26;20345;-68
2024/04/15 00:16:35;;;;;;;3.10;1.40;;;12.90;99.90;;;-141.84;47.37;19726.44;5451823;26;20254;-68
2024/04/15 00:19:05;;;;;;;2.88;1.25;;;12.90;99.90;;;-141.84;48.38;19704.09;5435467;26;20307;-67
2024/04/15 00:21:35;;;;;;;2.77;1.37;;;12.90;99.90;;;-141.84;46.84;19736.59;5452431;26;20738;-67
2024/04/15 00:24:03;;;;;;;4.17;1.40;;;12.90;99.90;;;-141.84;46.88;19736.59;5450624;26;20233;-68
2024/04/15 00:26:33;;;;;;;5.93;1.40;;;13.00;99.90;;;-141.84;47.26;19756.94;5431422;26;20627;-68
2024/04/15 00:29:01;;;;;;;4.67;1.60;;;13.00;99.90;;;-141.84;47.29;19728.47;5415928;26;20351;-69
2024/04/15 00:31:31;;;;;;;3.13;1.20;;;13.00;99.90;;;-141.84;47.58;19738.66;5413513;26;20254;-68
2024/04/15 00:33:59;;;;;;;1.83;1.30;;;13.00;99.90;;;-141.84;48.78;19704.09;5415460;26;20289;-67
2024/04/15 00:36:31;;;;;;;2.40;1.10;;;13.00;99.90;;;-141.84;50.31;19687.84;5431633;26;20227;-59
2024/04/15 00:38:59;;;;;;;5.10;1.10;;;13.00;99.90;;;-141.84;49.62;19728.47;5436187;26;20255;-59
2024/04/15 00:41:29;;;;;;;3.03;1.50;;;13.00;99.90;;;-141.84;50.51;19712.22;5359739;26;20256;-60
2024/04/15 00:43:56;;;;;;;2.78;1.00;;;12.90;99.90;;;-141.84;52.42;19673.59;5442952;26;20729;-59
2024/04/15 00:46:26;;;;;;;2.37;1.30;;;12.80;99.90;;;-141.84;54.37;19653.28;5395505;26;20362;-59
2024/04/15 00:48:56;;;;;;;4.53;1.57;;;12.70;99.90;;;-141.84;56.85;19630.94;5423604;26;20320;-59
2024/04/15 00:51:31;;;;;;;3.90;1.47;;;12.60;99.90;;;-141.84;57.92;19618.75;5448965;26;20268;-60
2024/04/15 00:53:58;;;;;;;2.50;1.20;;;12.50;99.90;;;-141.84;61.21;19657.34;5411372;26;20305;-67
2024/04/15 00:56:29;;;;;;;4.37;1.73;;;12.30;99.90;;;-141.84;64.44;19738.66;5416032;26;20259;-67
2024/04/15 00:58:59;;;;;;;5.60;2.00;;;12.20;99.90;;;-141.84;66.89;19765.06;5427288;26;20601;-67
2024/04/15 01:01:30;;;;;;;4.07;1.60;;;12.10;99.90;;;-141.84;70.85;20145.13;5434786;26;20632;-68
2024/04/15 01:03:57;;;;;;;4.63;1.97;;;11.90;99.90;;;-141.84;73.49;21519.34;5431330;26;20243;-68
2024/04/15 01:06:30;;;;;;;4.00;1.70;;;11.80;99.90;;;-141.84;73.18;21090.38;5431561;26;20243;-68
2024/04/15 01:08:57;;;;;;;3.43;1.60;;;11.70;99.90;;;-141.84;73.53;21236.75;5431687;26;20259;-60
2024/04/15 01:11:28;;;;;;;2.60;1.63;;;11.60;99.90;;;-141.84;68.28;19657.34;5428658;26;20251;-59
2024/04/15 01:14:01;;;;;;;4.90;1.30;;;11.50;99.90;;;-141.84;68.11;19659.38;5431300;26;20248;-59
2024/04/15 01:16:39;;;;;;;4.87;1.73;;;11.50;99.90;;;-141.84;69.28;19728.47;5430645;26;20281;-60
2024/04/15 01:19:06;;;;;;;3.70;1.80;;;11.50;99.90;;;-141.84;64.62;19531.34;5407557;26;20253;-60
2024/04/15 01:21:43;;;;;;;2.73;1.50;;;11.50;99.90;;;-141.84;64.88;19502.91;5435440;26;20226;-59
2024/04/15 01:24:13;;;;;;;3.33;1.70;;;11.40;99.90;;;-141.84;70.06;19795.53;5443431;26;20717;-59
2024/04/15 01:26:48;;;;;;;4.10;1.70;;;11.50;99.90;;;-141.84;71.87;20222.38;5434469;26;20266;-64
2024/04/15 01:29:18;;;;;;;6.20;1.80;;;11.50;99.90;;;-141.84;73.15;20728.50;5446960;26;20319;-59
2024/04/15 01:31:50;;;;;;;4.00;1.67;;;11.50;99.90;;;-141.84;73.75;21574.25;5417528;26;20742;-58
2024/04/15 01:34:18;;;;;;;4.27;1.63;;;11.50;99.90;;;-141.84;74.40;22397.81;5432399;26;20362;-59
2024/04/15 01:36:48;;;;;;;3.77;1.90;;;11.50;99.90;;;-141.84;73.38;21118.84;5425177;26;20266;-59
2024/04/15 01:39:20;;;;;;;4.53;2.50;;;11.50;99.90;;;-141.84;69.93;19758.97;5448310;26;20265;-59
2024/04/15 01:41:50;;;;;;;7.33;6.23;;;11.50;99.90;;;-141.84;66.85;19594.34;5434064;26;20288;-60
2024/04/15 01:44:18;;;;;;;9.17;3.60;;;11.50;99.90;;;-141.84;65.80;19513.06;5431522;26;20761;-59
2024/04/15 01:46:48;;;;;;;3.93;2.90;;;11.50;99.90;;;-141.84;66.79;19551.69;5425735;26;20367;-59
2024/04/15 01:49:17;;;;;;;3.83;2.37;;;11.40;99.90;;;-141.84;66.50;19545.56;5442384;26;20292;-59
2024/04/15 01:51:47;;;;;;;3.30;1.40;;;11.40;99.90;;;-141.84;57.00;19492.75;5423184;26;20242;-59
2024/04/15 01:54:15;;;;;;;2.40;1.40;;;11.40;99.90;;;-141.84;57.53;19462.25;5435221;26;20223;-59
2024/04/15 01:56:48;;;;;;;5.63;1.40;;;11.30;99.90;;;-141.84;60.28;19476.47;5427160;26;20326;-59
2024/04/15 01:59:16;;;;;;;3.20;1.40;;;11.30;99.90;;;-141.84;57.22;19456.16;5435539;26;20293;-61
2024/04/15 02:01:47;;;;;;;3.83;1.20;;;11.20;99.90;;;-141.84;56.04;19458.19;5422086;26;20313;-59
2024/04/15 02:04:14;;;;;;;2.67;1.37;;;11.10;99.90;;;-141.84;58.81;19446.00;5426523;26;20263;-60
2024/04/15 02:06:45;;;;;;;3.83;1.40;;;11.00;99.90;;;-141.84;62.13;19431.78;5433447;26;20246;-60
2024/04/15 02:09:13;;;;;;;5.47;1.40;;;10.80;99.90;;;-141.84;65.04;19482.56;5416881;26;20265;-60
2024/04/15 02:11:43;;;;;;;3.70;1.60;;;10.70;99.90;;;-141.84;67.26;19482.56;5414430;26;20250;-60
2024/04/15 02:14:13;;;;;;;6.10;1.93;;;10.50;99.90;;;-141.84;66.53;19460.22;5431179;26;20254;-60
2024/04/15 02:16:43;;;;;;;2.90;1.47;;;10.40;99.90;;;-141.84;64.94;19452.09;5429993;26;20257;-62
2024/04/15 02:19:10;;;;;;;4.13;1.60;;;10.30;99.90;;;-141.84;63.92;19415.50;5420367;26;20354;-60
2024/04/15 02:21:41;;;;;;;5.30;1.60;;;10.30;99.90;;;-141.84;66.61;19439.91;5433900;26;20256;-61
2024/04/15 02:24:11;;;;;;;5.13;1.87;;;10.20;99.90;;;-141.84;66.28;19421.63;5358688;26;20245;-60
2024/04/15 02:26:41;;;;;;;5.17;1.67;;;10.20;99.90;;;-141.84;68.17;19458.19;5448528;26;20292;-60
2024/04/15 02:29:08;;;;;;;5.13;1.73;;;10.10;99.90;;;-141.84;72.06;19897.16;5448558;26;20249;-60
2024/04/15 02:31:41;;;;;;;4.30;1.83;;;10.00;99.90;;;-141.84;72.46;19952.03;5449164;26;20308;-61
2024/04/15 02:34:08;;;;;;;4.73;1.60;;;9.90;99.90;;;-141.84;73.58;20429.69;5449394;26;20288;-60
2024/04/15 02:36:39;;;;;;;6.53;2.37;;;9.70;99.90;;;-141.84;72.92;20025.22;5449834;26;20725;-59
2024/04/15 02:39:07;;;;;;;5.60;2.10;;;9.70;99.90;;;-141.84;75.46;22001.28;5452030;26;20245;-61
2024/04/15 02:41:39;;;;;;;7.33;2.37;;;9.60;99.90;;;-141.84;76.47;23856.25;5450566;26;20292;-59
2024/04/15 02:44:06;;;;;;;4.37;2.23;;;;;;;-141.84;78.94;33434.06;5410395;26;20245;-60
2024/04/15 02:46:37;;;;;;;3.67;2.30;;;;;;;-141.84;79.58;41610.59;5452044;26;20642;-60
2024/04/15 02:49:07;;;;;;;5.67;2.50;;;9.20;99.90;;;-141.84;82.03;54140.00;5452785;26;20800;-61
2024/04/15 02:51:39;;;;;;;3.13;2.17;;;9.20;99.90;;;-141.84;84.53;69653.38;5438256;26;20301;-60
2024/04/15 02:54:06;;;;;;;5.30;2.73;;;9.20;99.90;;;-141.84;82.16;57815.66;5449471;26;20234;-60
2024/04/15 02:56:37;;;;;;;4.87;2.50;;;9.10;99.90;;;-141.84;83.08;64387.81;5446792;26;20752;-60
2024/04/15 02:59:05;;;;;;;5.30;2.57;;;9.10;99.90;;;-141.84;85.04;71497.94;5448275;26;20262;-60
2024/04/15 03:01:35;;;;;;;6.30;2.63;;;9.10;99.90;;;-141.84;87.09;80733.66;5439023;26;20768;-61
2024/04/15 03:04:04;;;;;;;5.33;3.03;;;9.00;99.90;;;-141.84;89.32;88137.56;5447872;26;20302;-60
2024/04/15 03:06:37;;;;;;;5.40;3.47;;;9.00;99.90;;;-141.84;89.77;89461.13;5451936;26;20621;-60
2024/04/15 03:09:05;;;;;;;5.33;3.60;;;8.90;99.90;;;-141.84;92.85;98472.84;5451783;26;20261;-61
2024/04/15 03:11:35;;;;;;;5.77;3.27;;;8.90;99.90;;;-141.84;91.54;95024.81;5453041;26;20262;-61
2024/04/15 03:14:02;;;;;;;5.20;3.00;;;9.00;99.90;;;-141.84;88.58;86549.84;5452905;26;20837;-61
2024/04/15 03:16:32;;;;;;;5.00;3.07;;;9.00;99.90;;;-141.84;88.96;87608.25;5450291;26;20250;-60
2024/04/15 03:19:00;;;;;;;7.10;3.37;;;9.00;99.90;;;-141.84;90.29;91314.81;5451177;26;20297;-60
2024/04/15 03:21:30;;;;;;;5.93;3.30;;;8.90;99.90;;;-141.84;91.72;94229.53;5452482;26;20616;-60
2024/04/15 03:24:00;;;;;;;7.07;3.33;;;8.90;99.90;;;-141.84;90.78;93964.47;5446587;26;20254;-60
2024/04/15 03:26:30;;;;;;;6.20;3.80;;;8.90;99.90;;;-141.84;88.29;86020.75;5430119;26;20250;-61
2024/04/15 03:28:58;;;;;;;5.53;3.20;;;8.90;99.90;;;-141.84;90.16;90520.28;5430533;26;20661;-61
2024/04/15 03:31:28;;;;;;;5.10;3.40;;;8.90;99.90;;;-141.84;93.67;100330.69;5368535;26;20254;-60
2024/04/15 03:34:01;;;;;;;6.47;3.50;;;8.90;99.90;;;-141.84;95.06;103251.88;5414988;26;20235;-60
2024/04/15 03:36:31;;;;;;;4.73;3.67;;;8.80;99.90;;;-141.84;93.33;100065.22;5416003;26;20254;-60
2024/04/15 03:39:04;;;;;;;5.03;3.13;;;8.90;99.90;;;-141.84;95.73;104314.66;5420274;26;20296;-60
2024/04/15 03:41:35;;;;;;;9.13;3.93;;;8.80;99.90;;;-141.84;98.98;110697.16;5422266;26;20258;-60
2024/04/15 03:44:05;;;;;;;6.13;3.77;;;8.90;99.90;;;-141.84;94.19;102986.25;5415082;26;20246;-60
2024/04/15 03:46:33;;;;;;;5.70;3.43;;;8.90;99.90;;;-141.84;96.10;104846.16;5415779;26;20254;-61
2024/04/15 03:49:03;;;;;;;6.27;3.30;;;8.80;99.90;;;-141.84;95.37;105111.94;5428993;26;21536;-59
2024/04/15 03:51:30;;;;;;;7.73;3.40;;;8.90;99.90;;;-141.84;90.55;94759.69;5404998;26;20235;-59
2024/04/15 03:54:06;;;;;;;3.90;3.10;;;8.90;99.90;;;-141.84;88.52;86020.75;5429625;26;20965;-60
2024/04/15 03:56:34;;;;;;;5.57;3.33;;;8.90;99.90;;;-141.84;90.14;89725.88;5435021;26;20258;-59
2024/04/15 03:59:04;;;;;;;5.70;3.43;;;8.80;99.90;;;-141.84;90.30;91314.81;5431716;26;20259;-60
2024/04/15 04:01:32;;;;;;;5.67;3.60;;;8.80;99.90;;;-141.84;89.07;88137.56;5427051;26;20255;-60
2024/04/15 04:04:02;;;;;;;4.43;3.40;;;8.80;99.90;;;-141.84;92.24;96615.84;5413020;26;20323;-60
2024/04/15 04:06:31;;;;;;;4.27;3.43;;;8.90;99.90;;;-141.84;95.54;104048.94;5411818;26;20227;-60
2024/04/15 04:09:02;;;;;;;7.70;4.10;;;8.80;99.90;;;-141.84;97.38;108302.56;5414316;26;20251;-60
2024/04/15 04:11:32;;;;;;;4.70;3.53;;;8.80;99.90;;;-141.84;94.06;101392.69;5414562;26;20258;-61
2024/04/15 04:14:02;;;;;;;5.97;3.67;;;8.90;99.90;;;-141.84;95.72;105111.94;5406934;26;20278;-61
2024/04/15 04:16:30;;;;;;;5.33;3.70;;;8.80;99.90;;;-141.84;95.56;105111.94;5413810;26;20348;-61
2024/04/15 04:19:03;;;;;;;4.03;3.53;;;8.80;99.90;;;-141.84;97.55;108302.56;5414695;26;20277;-61
2024/04/15 04:21:30;;;;;;;5.13;3.63;;;8.80;99.90;;;-141.84;98.21;109366.66;5415416;26;20235;-61
2024/04/15 04:24:01;;;;;;;5.23;3.40;;;8.70;99.90;;;-141.84;99.10;110963.31;5433309;26;20292;-60
2024/04/15 04:26:31;;;;;;;6.30;3.93;;;8.70;99.90;;;-141.84;98.70;110963.31;5449978;26;20339;-62
2024/04/15 04:29:02;;;;;;;5.03;3.93;;;8.70;99.90;;;-141.84;97.22;109366.66;5449691;26;20606;-65
2024/04/15 04:31:29;;;;;;;5.83;4.10;;;8.90;99.90;;;-141.84;94.60;102986.25;5433970;26;20613;-60
2024/04/15 04:33:59;;;;;;;5.03;3.67;;;8.90;99.90;;;-141.84;96.74;106706.94;5448743;26;20269;-60
2024/04/15 04:36:28;;;;;;;4.43;3.73;;;8.90;99.90;;;-141.84;98.64;109898.81;5449972;26;20241;-59
2024/04/15 04:39:00;;;;;;;5.70;3.83;;;8.90;99.90;;;-141.84;99.89;112826.88;5449721;26;20285;-61
2024/04/15 04:41:31;;;;;;;5.33;3.60;;;8.80;99.90;;;-141.84;100.00;112560.63;5449236;26;20299;-60
2024/04/15 04:44:01;;;;;;;5.57;3.97;;;8.80;99.90;;;-141.84;98.06;110963.31;5448812;26;20794;-61
2024/04/15 04:46:29;;;;;;;6.77;3.73;;;8.90;99.90;;;-141.84;98.03;109100.59;5447734;26;20694;-59
2024/04/15 04:49:00;;;;;;;8.47;4.50;;;8.90;99.90;;;-141.84;98.18;110431.03;5448899;26;20310;-59
2024/04/15 04:51:28;;;;;;;7.03;4.57;;;9.00;99.90;;;-141.84;95.69;105643.53;5435446;26;20756;-61
2024/04/15 04:54:00;;;;;;;5.40;4.47;;;9.00;99.90;;;-141.84;96.92;107770.63;5449078;26;20263;-61
2024/04/15 04:56:27;;;;;;;7.20;4.10;;;9.10;99.90;;;-141.84;96.16;106706.94;5451719;26;20292;-60
2024/04/15 04:59:00;;;;;;;6.20;4.43;;;9.10;99.90;;;-141.84;95.88;105909.34;5453080;26;20258;-60
2024/04/15 05:01:28;;;;;;;7.00;4.37;;;9.20;99.90;;;-141.84;98.50;110164.91;5448113;26;20768;-60
2024/04/15 05:03:59;;;;;;;6.33;4.57;;;9.20;99.90;;;-141.84;100.00;113093.19;5448299;26;20590;-61
2024/04/15 05:06:27;;;;;;;5.70;4.40;;;9.10;99.90;;;-141.84;98.59;110963.31;5449854;26;20823;-60
2024/04/15 05:08:57;;;;;;;7.00;4.50;;;9.20;99.90;;;-141.84;96.45;108036.56;5447745;26;20284;-59
2024/04/15 05:11:24;;;;;;;5.70;3.90;;;9.30;99.90;;;-141.84;92.65;98207.50;5435782;26;20262;-59
2024/04/15 05:13:54;;;;;;;6.43;4.10;;;9.30;99.90;;;-141.84;92.79;99534.38;5447844;26;20300;-59
2024/04/15 05:16:27;;;;;;;4.90;4.40;;;9.40;99.90;;;-141.84;92.05;96881.06;5449327;26;20292;-60
2024/04/15 05:19:00;;;;;;;6.83;4.13;;;9.50;99.90;;;-141.84;91.33;96085.44;5449035;26;20241;-60
2024/04/15 05:21:31;;;;;;;5.00;4.50;;;9.60;99.90;;;-141.84;90.62;94494.59;5448830;26;20636;-60
2024/04/15 05:24:00;;;;;;;8.50;4.80;;;9.70;99.90;;;-141.84;90.09;92639.44;5442471;26;20647;-60
2024/04/15 05:26:30;;;;;;;6.73;5.23;;;9.70;99.90;;;-141.84;91.11;96085.44;5408214;26;20310;-60
2024/04/15 05:28:58;;;;;;;5.73;4.77;;;9.70;99.90;;;-141.84;90.80;94229.53;5422732;26;20247;-60
2024/04/15 05:31:31;;;;;;;6.30;4.53;;;9.80;99.90;;;-141.84;91.36;96615.84;5396570;26;20292;-60
2024/04/15 05:33:58;;;;;;;6.83;4.50;;;9.80;99.90;;;-141.84;89.27;89990.66;5428213;26;20270;-60
2024/04/15 05:36:28;;;;;;;5.97;4.93;;;9.80;99.90;;;-141.84;89.36;89725.88;5430486;26;20275;-60
2024/04/15 05:38:56;;;;;;;5.00;4.50;;;10.00;99.90;;;-141.84;87.78;85227.25;5422354;26;20298;-60
2024/04/15 05:41:26;;;;;;;7.03;5.30;;;10.10;99.90;;;-141.84;88.18;86020.75;5427177;26;20358;-60
2024/04/15 05:43:54;;;;;;;6.60;4.83;;;10.10;99.90;;;-141.84;82.56;63598.59;5427065;26;20251;-60
2024/04/15 05:46:24;;;;;;;4.87;4.37;;;10.10;99.90;;;-141.84;79.54;42610.09;5429998;26;20300;-59
2024/04/15 05:48:54;;;;;;;5.50;4.27;;;10.20;99.90;;;-141.84;83.47;66229.97;5429579;26;20223;-60
2024/04/15 05:51:25;;;;;;;5.93;4.60;;;10.30;99.90;;;-141.84;80.69;50992.13;5404571;26;20637;-59
2024/04/15 05:53:52;;;;;;;5.03;4.30;;;10.40;99.90;;;-141.84;79.55;43395.16;5431930;26;20250;-62
2024/04/15 05:56:23;;;;;;;8.33;4.90;;;10.50;99.90;;;-141.84;76.72;24558.22;5428041;26;20249;-60
2024/04/15 05:58:51;;;;;;;5.40;4.47;;;10.60;99.90;;;-141.84;78.13;31497.06;5427682;26;20246;-61
2024/04/15 06:01:21;;;;;;;5.60;4.83;;;10.60;99.90;;;-141.84;77.88;29237.06;5427669;26;20332;-60
2024/04/15 06:03:48;;;;;;;6.73;4.30;;;10.60;99.90;;;-141.84;75.57;22721.19;5425206;26;20574;-63
2024/04/15 06:06:21;;;;;;;5.63;4.40;;;10.70;99.90;;;-141.84;73.18;20391.06;5433450;26;20230;-60
2024/04/15 06:08:48;;;;;;;6.17;4.10;;;10.90;99.90;;;-141.84;73.06;20063.81;5418661;26;20751;-61
2024/04/15 06:11:19;;;;;;;5.27;4.60;;;10.90;99.90;;;-141.84;73.20;20254.88;5432435;26;20257;-61
2024/04/15 06:13:46;;;;;;;4.77;3.97;;;11.00;99.90;;;-141.84;72.12;19793.50;5432633;26;20799;-61
2024/04/15 06:16:16;;;;;;;6.17;4.30;;;10.90;99.90;;;-141.84;73.46;20405.31;5432588;26;20258;-61
2024/04/15 06:18:44;;;;;;;5.37;4.63;;;11.10;99.90;;;-141.84;73.18;20395.13;5412993;26;20347;-61
2024/04/15 06:21:15;;;;;;;5.47;4.40;;;11.20;99.90;;;-141.84;70.59;19661.41;5438031;26;20226;-61
2024/04/15 06:23:46;;;;;;;5.43;4.33;;;11.30;99.90;;;-141.84;71.76;19956.09;5428256;26;20261;-61
2024/04/15 06:26:16;;;;;;;5.03;4.30;;;11.50;99.90;;;-141.84;69.38;19614.66;5427235;26;20819;-61
2024/04/15 06:28:44;;;;;;;6.97;4.40;;;11.60;99.90;;;-141.84;67.00;19521.19;5415457;26;20315;-60
2024/04/15 06:31:14;;;;;;;4.83;4.33;;;11.70;99.90;;;-141.84;66.30;19496.81;5428134;26;20937;-61
2024/04/15 06:33:42;;;;;;;7.97;4.37;;;11.90;99.90;;;-141.84;66.17;19537.44;5419439;26;20237;-60
2024/04/15 06:36:13;;;;;;;7.07;4.27;;;12.00;99.90;;;-141.84;63.03;19539.47;5432439;26;20285;-59
2024/04/15 06:38:40;;;;;;;7.60;4.60;;;12.20;99.90;;;-141.84;62.71;19525.25;5432244;26;20283;-61
2024/04/15 06:41:14;;;;;;;4.83;3.70;;;12.40;99.90;;;-141.84;61.41;19529.31;5422664;26;20253;-60
2024/04/15 06:43:42;;;;;;;5.13;4.10;;;12.40;99.90;;;-141.84;63.04;19525.25;5435127;26;20720;-60
2024/04/15 06:46:12;;;;;;;6.07;4.00;;;12.50;99.90;;;-141.84;62.86;19533.38;5433165;26;20734;-61
2024/04/15 06:48:43;;;;;;;5.67;4.03;;;12.50;99.90;;;-141.84;63.62;19553.72;5428413;26;20832;-63
2024/04/15 06:51:13;;;;;;;5.07;4.57;;;12.40;99.90;;;-141.84;63.21;19553.72;5434004;26;20265;-61
2024/04/15 06:53:42;;;;;;;7.35;4.03;;;12.50;99.90;;;-141.84;63.07;19549.63;5439806;26;20246;-60
2024/04/15 06:56:16;;;;;;;4.07;3.67;;;12.50;99.90;;;-141.84;60.16;19537.44;5431601;26;20351;-60
2024/04/15 06:58:44;;;;;;;3.60;3.30;;;12.60;99.90;;;-141.84;62.16;19555.75;5416638;26;20254;-61
2024/04/15 07:01:15;;;;;;;5.00;3.57;;;12.60;99.90;;;-141.84;62.58;19572.00;5425714;26;20257;-60
2024/04/15 07:03:44;;;;;;;3.65;3.35;;;12.90;99.90;;;-141.84;61.89;19563.88;5433072;26;20226;-61
2024/04/15 07:06:14;;;;;;;3.78;3.30;;;12.70;99.90;;;-141.84;59.57;19557.78;5431697;26;20335;-60
2024/04/15 07:08:43;;;;;;;4.68;3.03;;;12.60;99.90;;;-141.84;57.61;19553.72;5430479;26;20579;-62
2024/04/15 07:11:16;;;;;;;4.97;2.80;;;12.60;99.90;;;-141.84;58.89;19533.38;5433560;26;20588;-60
2024/04/15 07:13:45;;;;;;;5.18;2.75;;;12.50;99.90;;;-141.84;60.65;19541.50;5435802;26;20261;-60
2024/04/15 07:16:15;;;;;;;3.63;3.10;;;12.50;99.90;;;-141.84;60.41;19517.13;5436703;26;20257;-62
2024/04/15 07:18:44;;;;;;;3.50;3.07;;;12.50;99.90;;;-141.84;59.03;19541.50;5435746;26;20611;-60
2024/04/15 07:21:14;;;;;;;4.33;3.17;;;12.50;99.90;;;-141.84;57.15;19541.50;5436876;26;20234;-60
2024/04/15 07:23:44;;;;;;;3.70;3.20;;;12.60;99.90;;;-141.84;56.99;19565.91;5423076;26;20795;-61
2024/04/15 07:26:18;;;;;;;4.13;3.20;;;12.60;99.90;;;-141.84;57.26;19557.78;5458341;26;20290;-60
2024/04/15 07:28:45;;;;;;;2.90;2.60;;;12.70;99.90;;;-141.84;56.64;19561.84;5454490;26;20287;-61
2024/04/15 07:31:17;;;;;;;4.13;2.90;;;12.80;99.90;;;-141.84;55.66;19614.66;5448261;26;20253;-60
2024/04/15 07:33:44;;;;;;;4.32;2.78;;;12.90;99.90;;;-141.84;54.91;19598.41;5450400;26;20272;-67
2024/04/15 07:36:15;;;;;;;3.42;3.05;;;13.00;99.90;;;-141.84;54.80;19598.41;5451029;26;20293;-68
2024/04/15 07:38:43;;;;;;;3.00;2.70;;;13.00;99.90;;;-141.84;54.91;19574.03;5450297;26;20330;-68
2024/04/15 07:41:13;;;;;;;3.08;2.40;;;12.90;99.90;;;-141.84;55.63;19614.66;5448137;26;20292;-68
2024/04/15 07:43:45;;;;;;;4.57;2.58;;;13.00;99.90;;;-141.84;54.03;19604.50;5449668;26;20772;-67
2024/04/15 07:46:15;;;;;;;3.47;2.30;;;13.00;99.90;;;-141.84;55.14;19616.72;5454293;26;20264;-68
2024/04/15 07:48:46;;;;;;;4.85;2.50;;;13.10;99.90;;;-141.84;54.44;19657.34;5449364;26;20630;-67
2024/04/15 07:51:16;;;;;;;6.68;5.82;;;13.40;99.90;;;-141.84;52.20;19708.16;5451081;26;20338;-67
2024/04/15 07:53:46;;;;;;;24.25;18.63;;;13.60;99.90;;;-141.84;52.04;19761.00;5450921;26;20362;-68
2024/04/15 07:56:14;;;;;;;7.25;2.80;;;13.90;99.90;;;-141.84;52.51;19754.91;5444605;26;20592;-70
2024/04/15 07:58:46;;;;;;;2.78;1.83;;;14.10;99.90;;;-141.84;51.01;19793.50;5451120;26;20361;-68
2024/04/15 08:01:14;;;;;;;4.38;1.92;;;14.30;99.90;;;-141.84;47.72;19819.94;5450525;26;20257;-69
2024/04/15 08:03:44;;;;;;;2.75;2.10;;;14.30;99.90;;;-141.84;49.81;19758.97;5448961;26;20319;-67
2024/04/15 08:06:12;;;;;;;4.15;1.85;;;13.90;99.90;;;-141.84;49.03;19765.06;5452075;26;20226;-68
2024/04/15 08:08:42;;;;;;;4.93;1.80;;;14.00;99.90;;;-141.84;49.52;19748.81;5450792;26;20246;-69
2024/04/15 08:11:10;;;;;;;3.17;1.80;;;13.80;99.90;;;-141.84;50.01;19736.59;5450508;26;20258;-67
2024/04/15 08:13:40;;;;;;;3.53;1.65;;;13.50;99.90;;;-141.84;49.79;19724.41;5449148;26;20257;-68
2024/04/15 08:16:10;;;;;;;3.22;1.95;;;13.60;99.90;;;-141.84;49.45;19720.34;5449640;26;20257;-68
2024/04/15 08:18:41;;;;;;;3.80;2.45;;;13.70;99.90;;;-141.84;50.18;19742.72;5435710;26;21016;-68
2024/04/15 08:21:08;;;;;;;3.78;2.30;;;13.70;99.90;;;-141.84;49.55;19754.91;5450382;26;20268;-67
2024/04/15 08:23:40;;;;;;;4.38;2.67;;;13.80;99.90;;;-141.84;50.79;19752.88;5461017;26;20253;-67
2024/04/15 08:26:07;;;;;;;4.53;2.33;;;13.80;99.90;;;-141.84;50.03;19785.38;5429366;26;20259;-68
2024/04/15 08:28:39;;;;;;;4.05;2.00;;;13.90;99.90;;;-141.84;49.88;19785.38;5428604;26;20258;-68
2024/04/15 08:31:07;;;;;;;2.90;1.98;;;14.00;99.90;;;-141.84;49.91;19752.88;5431807;26;20255;-69
2024/04/15 08:33:40;;;;;;;4.15;2.20;;;13.90;99.90;;;-141.84;50.73;19722.38;5435223;26;20226;-67
2024/04/15 08:36:08;;;;;;;5.00;2.28;;;13.80;99.90;;;-141.84;50.72;19767.09;5433908;26;20234;-68
2024/04/15 08:38:44;;;;;;;2.58;2.05;;;14.00;99.90;;;-141.84;49.98;19777.25;5404534;26;20305;-68
2024/04/15 08:41:20;;;;;;;2.15;1.80;;;13.90;99.90;;;-141.84;49.78;19797.59;5433890;26;20253;-68
2024/04/15 08:43:50;;;;;;;3.38;2.08;;;14.00;99.90;;;-141.84;49.40;19797.59;5432602;26;20748;-68
2024/04/15 08:46:23;;;;;;;2.67;2.03;;;14.10;99.90;;;-141.84;50.17;19783.34;5427239;26;20247;-68
2024/04/15 08:48:57;;;;;;;2.63;2.00;;;13.90;99.90;;;-141.84;50.54;19752.88;5428320;26;20993;-68
2024/04/15 08:51:25;;;;;;;2.97;2.20;;;13.70;99.90;;;-141.84;50.38;19740.69;5434785;26;20230;-68
2024/04/15 08:53:55;;;;;;;2.17;1.98;;;13.70;99.90;;;-141.84;51.62;19718.31;5434795;26;20247;-69
2024/04/15 08:56:25;;;;;;;4.13;2.00;;;13.60;99.90;;;-141.84;51.53;19740.69;5428914;26;20266;-68
2024/04/15 08:59:00;;;;;;;3.72;2.20;;;13.60;99.90;;;-141.84;49.88;19789.44;5428625;26;20294;-60
2024/04/15 09:01:31;;;;;;;3.45;2.13;;;13.90;99.90;;;-141.84;51.02;19738.66;5419479;26;20245;-61
2024/04/15 09:04:04;;;;;;;2.25;1.90;;;13.80;99.90;;;-141.84;51.30;19736.59;5438928;26;20329;-61
2024/04/15 09:06:32;;;;;;;3.33;2.20;;;13.70;99.90;;;-141.84;50.50;19783.34;5430172;26;20656;-61
2024/04/15 09:09:02;;;;;;;4.25;2.42;;;13.90;99.90;;;-141.84;49.93;19791.47;5431444;26;20251;-61
2024/04/15 09:11:34;;;;;;;2.83;2.63;;;13.80;99.90;;;-141.84;50.40;19742.72;5433532;26;20295;-62
2024/04/15 09:14:07;;;;;;;4.20;2.45;;;13.80;99.90;;;-141.84;50.81;19793.50;5430613;26;20745;-61
2024/04/15 09:16:37;;;;;;;2.70;2.00;;;13.80;99.90;;;-141.84;50.96;19801.66;5420198;26;20358;-62
2024/04/15 09:19:11;;;;;;;2.53;2.20;;;13.90;99.90;;;-141.84;49.29;19826.03;5433435;26;20262;-61
2024/04/15 09:21:40;;;;;;;4.25;2.40;;;14.30;99.90;;;-141.84;49.69;19817.91;5429443;26;20290;-61
2024/04/15 09:24:12;;;;;;;2.47;2.17;;;14.10;99.90;;;-141.84;50.53;19767.09;5414867;26;20243;-60
2024/04/15 09:26:40;;;;;;;4.20;2.92;;;14.10;99.90;;;-141.84;50.36;19807.75;5430593;26;20261;-58
2024/04/15 09:29:12;;;;;;;4.97;3.00;;;14.20;99.90;;;-141.84;49.10;19840.25;5429092;26;20267;-61
2024/04/15 09:31:39;;;;;;;3.13;2.50;;;14.30;99.90;;;-141.84;49.90;19858.56;5430052;26;20329;-60
2024/04/15 09:34:12;;;;;;;4.22;2.78;;;14.40;99.90;;;-141.84;50.19;19842.28;5428572;26;20289;-62
2024/04/15 09:36:41;;;;;;;3.00;2.35;;;14.40;99.90;;;-141.84;49.19;19821.97;5430707;26;20258;-62
2024/04/15 09:39:13;;;;;;;4.90;2.70;;;14.40;99.90;;;-141.84;50.04;19817.91;5429827;26;20230;-60
2024/04/15 09:41:42;;;;;;;3.65;2.95;;;14.40;99.90;;;-141.84;49.28;19826.03;5431073;26;20703;-60
2024/04/15 09:44:16;;;;;;;2.92;2.63;;;14.60;99.90;;;-141.84;50.07;19821.97;5433337;26;20257;-62
2024/04/15 09:46:45;;;;;;;3.10;2.70;;;14.50;99.90;;;-141.84;48.54;19824.00;5419812;26;20251;-60
2024/04/15 09:49:20;;;;;;;3.40;3.10;;;14.60;99.90;;;-141.84;48.66;19893.09;5433684;26;20254;-62
2024/04/15 09:51:51;;;;;;;3.63;2.72;;;14.70;99.90;;;-141.84;47.74;19927.66;5420944;26;20242;-62
2024/04/15 09:54:33;;;;;;;3.80;2.65;;;14.80;99.90;;;-141.84;46.76;19923.59;5435096;26;20349;-60
2024/04/15 09:57:12;;;;;;;2.60;2.35;;;15.10;99.90;;;-141.84;46.60;19970.34;5433737;26;20254;-60
2024/04/15 09:59:52;;;;;;;4.68;3.00;;;15.20;99.90;;;-141.84;46.64;19950.00;5409678;26;20876;-61
2024/04/15 10:02:27;;;;;;;5.28;2.90;;;15.30;99.90;;;-141.84;45.98;20000.81;5444979;26;20245;-60
2024/04/15 10:05:10;;;;;;;2.67;2.42;;;15.20;99.90;;;-141.84;44.99;20025.22;5416593;26;20662;-61
2024/04/15 10:07:42;;;;;;;3.90;3.50;;;15.40;99.90;;;-141.84;44.34;20004.88;5428922;26;20254;-61
2024/04/15 10:10:13;;;;;;;3.58;2.92;;;15.40;99.90;;;-141.84;45.42;19996.75;5433244;26;20618;-61
2024/04/15 10:12:40;;;;;;;5.50;3.03;;;15.30;99.90;;;-141.84;45.60;19988.63;5437241;26;20231;-60
2024/04/15 10:15:13;;;;;;;5.63;3.03;;;15.20;99.90;;;-141.84;45.76;19964.25;5430666;26;20238;-60
2024/04/15 10:17:40;;;;;;;3.67;3.35;;;15.10;99.90;;;-141.84;46.35;19976.44;5434290;26;20253;-60
2024/04/15 10:20:16;;;;;;;4.53;3.47;;;15.20;99.90;;;-141.84;46.41;19958.13;5432611;26;20257;-60